sensor_id;sensor_type;location;lat;lon;timestamp;P1;durP1;ratioP1;P2;durP2;ratioP2
74849;SDS011;63397;47.480;19.238;2023-03-23T00:01:20;14.60;;;4.43;;
74849;SDS011;63397;47.480;19.238;2023-03-23T00:04:21;18.88;;;7.80;;
74849;SDS011;63397;47.480;19.238;2023-03-23T00:07:23;13.48;;;6.38;;
74849;SDS011;63397;47.480;19.238;2023-03-23T00:10:28;15.88;;;5.65;;
74849;SDS011;63397;47.480;19.238;2023-03-23T00:13:33;16.57;;;5.40;;
74849;SDS011;63397;47.480;19.238;2023-03-23T00:16:34;18.27;;;6.03;;
74849;SDS011;63397;47.480;19.238;2023-03-23T00:19:38;13.15;;;5.47;;
74849;SDS011;63397;47.480;19.238;2023-03-23T00:22:46;14.02;;;6.60;;
74849;SDS011;63397;47.480;19.238;2023-03-23T00:25:47;14.90;;;5.95;;
74849;SDS011;63397;47.480;19.238;2023-03-23T00:28:49;17.73;;;7.27;;
74849;SDS011;63397;47.480;19.238;2023-03-23T00:31:52;14.60;;;6.00;;
74849;SDS011;63397;47.480;19.238;2023-03-23T00:34:53;11.98;;;5.68;;
74849;SDS011;63397;47.480;19.238;2023-03-23T00:37:54;13.20;;;4.70;;
74849;SDS011;63397;47.480;19.238;2023-03-23T00:40:56;11.70;;;5.25;;
74849;SDS011;63397;47.480;19.238;2023-03-23T00:43:58;15.70;;;5.57;;
74849;SDS011;63397;47.480;19.238;2023-03-23T00:47:01;14.50;;;5.32;;
74849;SDS011;63397;47.480;19.238;2023-03-23T00:50:05;15.93;;;5.43;;
74849;SDS011;63397;47.480;19.238;2023-03-23T00:53:07;13.20;;;5.38;;
74849;SDS011;63397;47.480;19.238;2023-03-23T00:56:08;14.60;;;5.68;;
74849;SDS011;63397;47.480;19.238;2023-03-23T00:59:09;15.73;;;5.50;;
74849;SDS011;63397;47.480;19.238;2023-03-23T01:02:10;13.90;;;5.20;;
74849;SDS011;63397;47.480;19.238;2023-03-23T01:05:11;15.10;;;6.22;;
74849;SDS011;63397;47.480;19.238;2023-03-23T01:08:13;12.40;;;4.60;;
74849;SDS011;63397;47.480;19.238;2023-03-23T01:11:15;14.18;;;5.82;;
74849;SDS011;63397;47.480;19.238;2023-03-23T01:14:17;11.77;;;5.00;;
74849;SDS011;63397;47.480;19.238;2023-03-23T01:17:18;18.38;;;6.43;;
74849;SDS011;63397;47.480;19.238;2023-03-23T01:20:22;13.38;;;5.72;;
74849;SDS011;63397;47.480;19.238;2023-03-23T01:23:23;14.70;;;5.13;;
74849;SDS011;63397;47.480;19.238;2023-03-23T01:26:25;11.60;;;4.72;;
74849;SDS011;63397;47.480;19.238;2023-03-23T01:29:27;13.60;;;4.30;;
74849;SDS011;63397;47.480;19.238;2023-03-23T01:32:28;14.65;;;5.53;;
74849;SDS011;63397;47.480;19.238;2023-03-23T01:35:29;13.25;;;5.25;;
74849;SDS011;63397;47.480;19.238;2023-03-23T01:38:31;12.85;;;4.95;;
74849;SDS011;63397;47.480;19.238;2023-03-23T01:41:32;16.70;;;5.32;;
74849;SDS011;63397;47.480;19.238;2023-03-23T01:47:40;10.70;;;5.03;;
74849;SDS011;63397;47.480;19.238;2023-03-23T01:51:24;11.20;;;5.88;;
74849;SDS011;63397;47.480;19.238;2023-03-23T01:54:07;12.00;;;3.95;;
74849;SDS011;63397;47.480;19.238;2023-03-23T01:57:19;12.38;;;3.97;;
74849;SDS011;63397;47.480;19.238;2023-03-23T02:00:21;9.13;;;3.90;;
74849;SDS011;63397;47.480;19.238;2023-03-23T02:03:27;10.90;;;4.85;;
74849;SDS011;63397;47.480;19.238;2023-03-23T02:06:30;9.32;;;4.43;;
74849;SDS011;63397;47.480;19.238;2023-03-23T02:09:53;16.42;;;7.05;;
74849;SDS011;63397;47.480;19.238;2023-03-23T02:12:55;10.73;;;3.83;;
74849;SDS011;63397;47.480;19.238;2023-03-23T02:34:44;10.43;;;3.95;;
74849;SDS011;63397;47.480;19.238;2023-03-23T02:38:08;14.20;;;4.63;;
74849;SDS011;63397;47.480;19.238;2023-03-23T02:41:11;7.15;;;3.67;;
74849;SDS011;63397;47.480;19.238;2023-03-23T02:44:13;13.98;;;3.63;;
74849;SDS011;63397;47.480;19.238;2023-03-23T02:47:19;11.27;;;3.87;;
74849;SDS011;63397;47.480;19.238;2023-03-23T02:50:24;10.68;;;4.18;;
74849;SDS011;63397;47.480;19.238;2023-03-23T02:53:27;7.72;;;3.25;;
74849;SDS011;63397;47.480;19.238;2023-03-23T02:56:29;11.63;;;4.28;;
74849;SDS011;63397;47.480;19.238;2023-03-23T02:59:31;13.07;;;4.18;;
74849;SDS011;63397;47.480;19.238;2023-03-23T03:02:33;9.67;;;4.47;;
74849;SDS011;63397;47.480;19.238;2023-03-23T03:05:40;12.40;;;4.35;;
74849;SDS011;63397;47.480;19.238;2023-03-23T03:11:47;16.33;;;5.18;;
74849;SDS011;63397;47.480;19.238;2023-03-23T03:14:51;8.85;;;4.05;;
74849;SDS011;63397;47.480;19.238;2023-03-23T03:17:57;11.67;;;3.83;;
74849;SDS011;63397;47.480;19.238;2023-03-23T03:21:04;11.60;;;4.60;;
74849;SDS011;63397;47.480;19.238;2023-03-23T03:24:08;9.82;;;4.20;;
74849;SDS011;63397;47.480;19.238;2023-03-23T03:27:13;16.45;;;3.97;;
74849;SDS011;63397;47.480;19.238;2023-03-23T03:30:26;10.88;;;4.45;;
74849;SDS011;63397;47.480;19.238;2023-03-23T03:33:29;11.70;;;4.73;;
74849;SDS011;63397;47.480;19.238;2023-03-23T03:36:33;13.35;;;3.53;;
74849;SDS011;63397;47.480;19.238;2023-03-23T03:39:41;8.10;;;3.53;;
74849;SDS011;63397;47.480;19.238;2023-03-23T03:42:45;12.85;;;4.18;;
74849;SDS011;63397;47.480;19.238;2023-03-23T03:45:46;10.40;;;3.33;;
74849;SDS011;63397;47.480;19.238;2023-03-23T03:48:47;11.20;;;4.23;;
74849;SDS011;63397;47.480;19.238;2023-03-23T03:51:49;12.10;;;3.90;;
74849;SDS011;63397;47.480;19.238;2023-03-23T03:54:57;12.65;;;3.80;;
74849;SDS011;63397;47.480;19.238;2023-03-23T03:57:59;13.15;;;4.93;;
74849;SDS011;63397;47.480;19.238;2023-03-23T04:01:29;12.93;;;4.97;;
74849;SDS011;63397;47.480;19.238;2023-03-23T04:04:30;13.40;;;5.07;;
74849;SDS011;63397;47.480;19.238;2023-03-23T04:07:31;12.82;;;5.28;;
74849;SDS011;63397;47.480;19.238;2023-03-23T04:10:32;15.45;;;5.00;;
74849;SDS011;63397;47.480;19.238;2023-03-23T04:13:35;18.27;;;5.82;;
74849;SDS011;63397;47.480;19.238;2023-03-23T04:16:36;12.32;;;5.80;;
74849;SDS011;63397;47.480;19.238;2023-03-23T04:19:37;19.03;;;5.93;;
74849;SDS011;63397;47.480;19.238;2023-03-23T04:22:40;13.00;;;4.93;;
74849;SDS011;63397;47.480;19.238;2023-03-23T04:25:44;22.00;;;5.47;;
74849;SDS011;63397;47.480;19.238;2023-03-23T04:28:46;14.50;;;5.22;;
74849;SDS011;63397;47.480;19.238;2023-03-23T04:32:05;13.70;;;4.47;;
74849;SDS011;63397;47.480;19.238;2023-03-23T04:35:13;16.43;;;4.47;;
74849;SDS011;63397;47.480;19.238;2023-03-23T04:38:24;15.48;;;4.85;;
74849;SDS011;63397;47.480;19.238;2023-03-23T04:41:32;13.57;;;5.20;;
74849;SDS011;63397;47.480;19.238;2023-03-23T04:44:43;13.02;;;4.72;;
74849;SDS011;63397;47.480;19.238;2023-03-23T04:47:56;18.23;;;4.82;;
74849;SDS011;63397;47.480;19.238;2023-03-23T04:51:14;12.43;;;4.17;;
74849;SDS011;63397;47.480;19.238;2023-03-23T04:54:17;13.85;;;5.63;;
74849;SDS011;63397;47.480;19.238;2023-03-23T04:57:23;12.18;;;4.70;;
74849;SDS011;63397;47.480;19.238;2023-03-23T05:00:51;15.75;;;4.65;;
74849;SDS011;63397;47.480;19.238;2023-03-23T05:03:54;10.68;;;4.00;;
74849;SDS011;63397;47.480;19.238;2023-03-23T05:06:55;11.60;;;4.57;;
74849;SDS011;63397;47.480;19.238;2023-03-23T05:10:01;9.55;;;4.00;;
74849;SDS011;63397;47.480;19.238;2023-03-23T05:13:05;14.35;;;3.67;;
74849;SDS011;63397;47.480;19.238;2023-03-23T05:16:06;9.68;;;3.80;;
74849;SDS011;63397;47.480;19.238;2023-03-23T05:19:10;8.65;;;3.13;;
74849;SDS011;63397;47.480;19.238;2023-03-23T05:22:12;11.27;;;4.30;;
74849;SDS011;63397;47.480;19.238;2023-03-23T05:25:20;7.97;;;4.40;;
74849;SDS011;63397;47.480;19.238;2023-03-23T05:28:27;11.60;;;4.32;;
74849;SDS011;63397;47.480;19.238;2023-03-23T05:31:37;10.60;;;4.22;;
74849;SDS011;63397;47.480;19.238;2023-03-23T05:34:38;9.57;;;3.63;;
74849;SDS011;63397;47.480;19.238;2023-03-23T05:37:39;9.20;;;3.27;;
74849;SDS011;63397;47.480;19.238;2023-03-23T05:40:43;10.15;;;3.97;;
74849;SDS011;63397;47.480;19.238;2023-03-23T05:43:50;11.32;;;4.18;;
74849;SDS011;63397;47.480;19.238;2023-03-23T05:47:07;11.18;;;5.18;;
74849;SDS011;63397;47.480;19.238;2023-03-23T05:50:11;13.45;;;4.65;;
74849;SDS011;63397;47.480;19.238;2023-03-23T05:53:14;11.20;;;3.60;;
74849;SDS011;63397;47.480;19.238;2023-03-23T05:56:15;8.48;;;3.85;;
74849;SDS011;63397;47.480;19.238;2023-03-23T05:59:44;8.27;;;3.00;;
74849;SDS011;63397;47.480;19.238;2023-03-23T06:02:54;7.68;;;2.72;;
74849;SDS011;63397;47.480;19.238;2023-03-23T06:06:03;7.68;;;2.97;;
74849;SDS011;63397;47.480;19.238;2023-03-23T06:09:16;7.90;;;3.37;;
74849;SDS011;63397;47.480;19.238;2023-03-23T06:12:43;7.07;;;3.22;;
74849;SDS011;63397;47.480;19.238;2023-03-23T06:15:56;8.82;;;3.22;;
74849;SDS011;63397;47.480;19.238;2023-03-23T06:19:14;9.43;;;3.50;;
74849;SDS011;63397;47.480;19.238;2023-03-23T06:22:25;8.57;;;3.40;;
74849;SDS011;63397;47.480;19.238;2023-03-23T06:25:52;9.73;;;4.37;;
74849;SDS011;63397;47.480;19.238;2023-03-23T06:28:54;7.40;;;2.95;;
74849;SDS011;63397;47.480;19.238;2023-03-23T06:31:56;7.75;;;2.95;;
74849;SDS011;63397;47.480;19.238;2023-03-23T06:35:01;8.15;;;3.00;;
74849;SDS011;63397;47.480;19.238;2023-03-23T06:38:21;8.55;;;3.63;;
74849;SDS011;63397;47.480;19.238;2023-03-23T06:41:26;8.50;;;3.70;;
74849;SDS011;63397;47.480;19.238;2023-03-23T06:44:28;8.88;;;3.45;;
74849;SDS011;63397;47.480;19.238;2023-03-23T06:47:29;9.57;;;4.20;;
74849;SDS011;63397;47.480;19.238;2023-03-23T06:50:32;10.93;;;4.13;;
74849;SDS011;63397;47.480;19.238;2023-03-23T06:53:39;9.35;;;4.13;;
74849;SDS011;63397;47.480;19.238;2023-03-23T06:56:45;8.63;;;3.87;;
74849;SDS011;63397;47.480;19.238;2023-03-23T06:59:47;10.02;;;4.57;;
74849;SDS011;63397;47.480;19.238;2023-03-23T07:02:49;9.95;;;5.00;;
74849;SDS011;63397;47.480;19.238;2023-03-23T07:05:55;9.95;;;5.07;;
74849;SDS011;63397;47.480;19.238;2023-03-23T07:09:07;9.65;;;4.53;;
74849;SDS011;63397;47.480;19.238;2023-03-23T07:12:09;9.17;;;4.83;;
74849;SDS011;63397;47.480;19.238;2023-03-23T07:15:17;11.88;;;4.30;;
74849;SDS011;63397;47.480;19.238;2023-03-23T07:18:25;10.15;;;4.85;;
74849;SDS011;63397;47.480;19.238;2023-03-23T07:21:28;11.68;;;5.05;;
74849;SDS011;63397;47.480;19.238;2023-03-23T07:24:30;12.68;;;5.10;;
74849;SDS011;63397;47.480;19.238;2023-03-23T07:27:44;11.43;;;4.90;;
74849;SDS011;63397;47.480;19.238;2023-03-23T07:30:46;10.45;;;5.10;;
74849;SDS011;63397;47.480;19.238;2023-03-23T07:33:48;11.10;;;4.60;;
74849;SDS011;63397;47.480;19.238;2023-03-23T07:36:49;14.43;;;5.72;;
74849;SDS011;63397;47.480;19.238;2023-03-23T07:39:51;12.50;;;5.05;;
74849;SDS011;63397;47.480;19.238;2023-03-23T07:42:55;11.70;;;5.57;;
74849;SDS011;63397;47.480;19.238;2023-03-23T07:46:19;11.88;;;5.05;;
74849;SDS011;63397;47.480;19.238;2023-03-23T07:49:30;11.95;;;5.07;;
74849;SDS011;63397;47.480;19.238;2023-03-23T07:52:46;12.57;;;5.63;;
74849;SDS011;63397;47.480;19.238;2023-03-23T07:55:48;10.48;;;5.40;;
74849;SDS011;63397;47.480;19.238;2023-03-23T07:59:12;11.27;;;5.13;;
74849;SDS011;63397;47.480;19.238;2023-03-23T08:02:15;11.48;;;5.15;;
74849;SDS011;63397;47.480;19.238;2023-03-23T08:05:24;11.65;;;5.68;;
74849;SDS011;63397;47.480;19.238;2023-03-23T08:08:55;13.80;;;5.35;;
74849;SDS011;63397;47.480;19.238;2023-03-23T08:12:16;9.68;;;4.97;;
74849;SDS011;63397;47.480;19.238;2023-03-23T08:15:38;10.20;;;4.83;;
74849;SDS011;63397;47.480;19.238;2023-03-23T08:18:43;10.52;;;4.32;;
74849;SDS011;63397;47.480;19.238;2023-03-23T08:22:03;9.90;;;5.05;;
74849;SDS011;63397;47.480;19.238;2023-03-23T08:25:33;14.35;;;5.15;;
74849;SDS011;63397;47.480;19.238;2023-03-23T08:28:48;13.40;;;5.38;;
74849;SDS011;63397;47.480;19.238;2023-03-23T08:32:07;8.63;;;4.53;;
74849;SDS011;63397;47.480;19.238;2023-03-23T08:35:14;10.73;;;4.97;;
74849;SDS011;63397;47.480;19.238;2023-03-23T08:38:52;11.00;;;5.00;;
74849;SDS011;63397;47.480;19.238;2023-03-23T08:42:15;12.02;;;4.72;;
74849;SDS011;63397;47.480;19.238;2023-03-23T08:45:42;10.02;;;4.85;;
74849;SDS011;63397;47.480;19.238;2023-03-23T08:49:04;8.37;;;4.50;;
74849;SDS011;63397;47.480;19.238;2023-03-23T08:52:35;8.52;;;4.13;;
74849;SDS011;63397;47.480;19.238;2023-03-23T08:56:03;9.25;;;4.47;;
74849;SDS011;63397;47.480;19.238;2023-03-23T08:59:30;7.93;;;4.28;;
74849;SDS011;63397;47.480;19.238;2023-03-23T09:02:52;10.88;;;5.00;;
74849;SDS011;63397;47.480;19.238;2023-03-23T09:06:00;9.13;;;3.80;;
74849;SDS011;63397;47.480;19.238;2023-03-23T09:09:11;11.38;;;4.43;;
74849;SDS011;63397;47.480;19.238;2023-03-23T09:12:12;9.02;;;4.35;;
74849;SDS011;63397;47.480;19.238;2023-03-23T09:15:15;9.48;;;4.45;;
74849;SDS011;63397;47.480;19.238;2023-03-23T09:18:17;8.57;;;4.55;;
74849;SDS011;63397;47.480;19.238;2023-03-23T09:21:19;8.10;;;4.37;;
74849;SDS011;63397;47.480;19.238;2023-03-23T09:24:21;8.85;;;4.30;;
74849;SDS011;63397;47.480;19.238;2023-03-23T09:27:22;6.72;;;3.28;;
74849;SDS011;63397;47.480;19.238;2023-03-23T09:30:24;7.22;;;3.53;;
74849;SDS011;63397;47.480;19.238;2023-03-23T09:33:27;7.75;;;3.88;;
74849;SDS011;63397;47.480;19.238;2023-03-23T09:36:33;8.23;;;4.20;;
74849;SDS011;63397;47.480;19.238;2023-03-23T09:39:34;7.38;;;3.50;;
74849;SDS011;63397;47.480;19.238;2023-03-23T09:42:52;8.20;;;4.13;;
74849;SDS011;63397;47.480;19.238;2023-03-23T09:46:13;7.47;;;3.50;;
74849;SDS011;63397;47.480;19.238;2023-03-23T09:49:39;7.55;;;3.38;;
74849;SDS011;63397;47.480;19.238;2023-03-23T09:55:48;5.93;;;2.88;;
74849;SDS011;63397;47.480;19.238;2023-03-23T10:01:52;5.15;;;2.50;;
74849;SDS011;63397;47.480;19.238;2023-03-23T10:04:56;6.80;;;3.03;;
74849;SDS011;63397;47.480;19.238;2023-03-23T10:07:58;4.53;;;2.10;;
74849;SDS011;63397;47.480;19.238;2023-03-23T10:17:18;5.65;;;1.88;;
74849;SDS011;63397;47.480;19.238;2023-03-23T10:33:22;3.90;;;1.73;;
74849;SDS011;63397;47.480;19.238;2023-03-23T10:36:30;4.40;;;2.00;;
74849;SDS011;63397;47.480;19.238;2023-03-23T10:39:49;4.23;;;1.80;;
74849;SDS011;63397;47.480;19.238;2023-03-23T10:42:52;3.95;;;1.73;;
74849;SDS011;63397;47.480;19.238;2023-03-23T10:46:00;4.15;;;1.60;;
74849;SDS011;63397;47.480;19.238;2023-03-23T10:49:02;4.57;;;1.90;;
74849;SDS011;63397;47.480;19.238;2023-03-23T10:58:22;4.45;;;1.55;;
74849;SDS011;63397;47.480;19.238;2023-03-23T11:01:31;3.63;;;1.50;;
74849;SDS011;63397;47.480;19.238;2023-03-23T11:04:33;3.80;;;1.60;;
74849;SDS011;63397;47.480;19.238;2023-03-23T11:07:35;4.97;;;1.25;;
74849;SDS011;63397;47.480;19.238;2023-03-23T11:10:37;4.20;;;1.60;;
74849;SDS011;63397;47.480;19.238;2023-03-23T11:13:41;3.92;;;1.45;;
74849;SDS011;63397;47.480;19.238;2023-03-23T11:16:45;3.50;;;1.63;;
74849;SDS011;63397;47.480;19.238;2023-03-23T11:19:47;3.65;;;1.73;;
74849;SDS011;63397;47.480;19.238;2023-03-23T11:22:49;3.15;;;1.52;;
74849;SDS011;63397;47.480;19.238;2023-03-23T11:25:55;3.20;;;1.53;;
74849;SDS011;63397;47.480;19.238;2023-03-23T11:29:11;3.13;;;1.65;;
74849;SDS011;63397;47.480;19.238;2023-03-23T11:32:14;2.97;;;1.40;;
74849;SDS011;63397;47.480;19.238;2023-03-23T11:35:34;2.88;;;1.50;;
74849;SDS011;63397;47.480;19.238;2023-03-23T11:38:35;3.80;;;1.80;;
74849;SDS011;63397;47.480;19.238;2023-03-23T11:41:37;3.40;;;1.47;;
74849;SDS011;63397;47.480;19.238;2023-03-23T11:44:42;4.25;;;1.60;;
74849;SDS011;63397;47.480;19.238;2023-03-23T11:50:52;4.25;;;1.70;;
74849;SDS011;63397;47.480;19.238;2023-03-23T11:53:56;4.50;;;1.80;;
74849;SDS011;63397;47.480;19.238;2023-03-23T11:56:59;3.83;;;1.70;;
74849;SDS011;63397;47.480;19.238;2023-03-23T12:00:00;3.67;;;1.50;;
74849;SDS011;63397;47.480;19.238;2023-03-23T12:03:12;5.82;;;1.42;;
74849;SDS011;63397;47.480;19.238;2023-03-23T12:29:12;4.23;;;1.60;;
74849;SDS011;63397;47.480;19.238;2023-03-23T12:32:22;5.05;;;1.92;;
74849;SDS011;63397;47.480;19.238;2023-03-23T12:36:11;3.58;;;1.50;;
74849;SDS011;63397;47.480;19.238;2023-03-23T12:48:49;3.30;;;1.30;;
74849;SDS011;63397;47.480;19.238;2023-03-23T12:58:46;3.45;;;1.42;;
74849;SDS011;63397;47.480;19.238;2023-03-23T13:01:32;3.20;;;1.47;;
74849;SDS011;63397;47.480;19.238;2023-03-23T13:04:36;3.00;;;1.42;;
74849;SDS011;63397;47.480;19.238;2023-03-23T13:07:42;2.55;;;1.02;;
74849;SDS011;63397;47.480;19.238;2023-03-23T13:10:47;3.38;;;1.45;;
74849;SDS011;63397;47.480;19.238;2023-03-23T13:13:50;3.63;;;1.67;;
74849;SDS011;63397;47.480;19.238;2023-03-23T13:23:23;4.13;;;1.50;;
74849;SDS011;63397;47.480;19.238;2023-03-23T13:26:26;4.05;;;1.92;;
74849;SDS011;63397;47.480;19.238;2023-03-23T13:29:28;3.30;;;1.60;;
74849;SDS011;63397;47.480;19.238;2023-03-23T13:32:34;3.80;;;1.77;;
74849;SDS011;63397;47.480;19.238;2023-03-23T13:35:36;3.40;;;1.75;;
74849;SDS011;63397;47.480;19.238;2023-03-23T13:38:47;3.80;;;1.98;;
74849;SDS011;63397;47.480;19.238;2023-03-23T13:48:22;3.33;;;1.47;;
74849;SDS011;63397;47.480;19.238;2023-03-23T13:54:29;3.78;;;1.63;;
74849;SDS011;63397;47.480;19.238;2023-03-23T13:57:35;4.03;;;1.60;;
74849;SDS011;63397;47.480;19.238;2023-03-23T14:00:47;4.65;;;1.95;;
74849;SDS011;63397;47.480;19.238;2023-03-23T14:03:49;5.13;;;1.50;;
74849;SDS011;63397;47.480;19.238;2023-03-23T14:06:53;3.08;;;1.30;;
74849;SDS011;63397;47.480;19.238;2023-03-23T14:10:04;4.05;;;1.63;;
74849;SDS011;63397;47.480;19.238;2023-03-23T14:13:11;3.55;;;1.63;;
74849;SDS011;63397;47.480;19.238;2023-03-23T14:19:22;3.90;;;1.70;;
74849;SDS011;63397;47.480;19.238;2023-03-23T14:22:27;3.72;;;1.33;;
74849;SDS011;63397;47.480;19.238;2023-03-23T14:25:29;2.88;;;1.55;;
74849;SDS011;63397;47.480;19.238;2023-03-23T14:28:35;4.07;;;1.60;;
74849;SDS011;63397;47.480;19.238;2023-03-23T14:31:37;5.15;;;1.63;;
74849;SDS011;63397;47.480;19.238;2023-03-23T14:34:38;2.43;;;1.30;;
74849;SDS011;63397;47.480;19.238;2023-03-23T14:37:40;5.22;;;1.80;;
74849;SDS011;63397;47.480;19.238;2023-03-23T14:40:41;5.60;;;2.00;;
74849;SDS011;63397;47.480;19.238;2023-03-23T14:43:42;4.30;;;1.85;;
74849;SDS011;63397;47.480;19.238;2023-03-23T14:46:45;3.92;;;1.65;;
74849;SDS011;63397;47.480;19.238;2023-03-23T14:49:46;4.97;;;1.90;;
74849;SDS011;63397;47.480;19.238;2023-03-23T14:52:48;3.38;;;1.48;;
74849;SDS011;63397;47.480;19.238;2023-03-23T14:55:51;4.18;;;1.75;;
74849;SDS011;63397;47.480;19.238;2023-03-23T14:58:52;4.50;;;2.05;;
74849;SDS011;63397;47.480;19.238;2023-03-23T15:01:53;4.45;;;1.98;;
74849;SDS011;63397;47.480;19.238;2023-03-23T15:04:56;4.50;;;1.73;;
74849;SDS011;63397;47.480;19.238;2023-03-23T15:08:41;4.40;;;1.90;;
74849;SDS011;63397;47.480;19.238;2023-03-23T15:11:24;4.43;;;2.08;;
74849;SDS011;63397;47.480;19.238;2023-03-23T15:14:28;3.83;;;1.80;;
74849;SDS011;63397;47.480;19.238;2023-03-23T15:17:31;3.58;;;1.63;;
74849;SDS011;63397;47.480;19.238;2023-03-23T15:20:46;3.80;;;1.70;;
74849;SDS011;63397;47.480;19.238;2023-03-23T15:23:47;4.80;;;1.63;;
74849;SDS011;63397;47.480;19.238;2023-03-23T15:26:48;4.05;;;1.55;;
74849;SDS011;63397;47.480;19.238;2023-03-23T15:29:50;4.60;;;1.65;;
74849;SDS011;63397;47.480;19.238;2023-03-23T15:32:59;3.45;;;1.70;;
74849;SDS011;63397;47.480;19.238;2023-03-23T15:36:05;3.93;;;1.60;;
74849;SDS011;63397;47.480;19.238;2023-03-23T15:39:08;6.60;;;1.45;;
74849;SDS011;63397;47.480;19.238;2023-03-23T15:42:24;3.72;;;1.90;;
74849;SDS011;63397;47.480;19.238;2023-03-23T15:45:27;7.53;;;2.00;;
74849;SDS011;63397;47.480;19.238;2023-03-23T15:48:29;4.15;;;1.55;;
74849;SDS011;63397;47.480;19.238;2023-03-23T15:51:30;4.83;;;1.50;;
74849;SDS011;63397;47.480;19.238;2023-03-23T15:54:33;4.22;;;1.52;;
74849;SDS011;63397;47.480;19.238;2023-03-23T15:57:34;3.42;;;1.35;;
74849;SDS011;63397;47.480;19.238;2023-03-23T16:00:35;7.53;;;1.80;;
74849;SDS011;63397;47.480;19.238;2023-03-23T16:03:42;4.22;;;1.67;;
74849;SDS011;63397;47.480;19.238;2023-03-23T16:06:46;3.63;;;1.50;;
74849;SDS011;63397;47.480;19.238;2023-03-23T16:09:48;4.40;;;1.50;;
74849;SDS011;63397;47.480;19.238;2023-03-23T16:12:50;4.97;;;2.00;;
74849;SDS011;63397;47.480;19.238;2023-03-23T16:15:53;4.78;;;1.23;;
74849;SDS011;63397;47.480;19.238;2023-03-23T16:18:55;3.55;;;1.52;;
74849;SDS011;63397;47.480;19.238;2023-03-23T16:21:58;5.07;;;1.70;;
74849;SDS011;63397;47.480;19.238;2023-03-23T16:25:00;4.80;;;1.38;;
74849;SDS011;63397;47.480;19.238;2023-03-23T16:28:03;3.95;;;1.40;;
74849;SDS011;63397;47.480;19.238;2023-03-23T16:31:05;2.88;;;1.13;;
74849;SDS011;63397;47.480;19.238;2023-03-23T16:34:07;4.53;;;1.65;;
74849;SDS011;63397;47.480;19.238;2023-03-23T16:37:09;3.17;;;1.07;;
74849;SDS011;63397;47.480;19.238;2023-03-23T16:40:13;4.55;;;1.40;;
74849;SDS011;63397;47.480;19.238;2023-03-23T16:43:16;2.95;;;1.10;;
74849;SDS011;63397;47.480;19.238;2023-03-23T16:46:18;4.70;;;1.58;;
74849;SDS011;63397;47.480;19.238;2023-03-23T16:49:20;3.38;;;1.35;;
74849;SDS011;63397;47.480;19.238;2023-03-23T16:52:23;3.47;;;1.50;;
74849;SDS011;63397;47.480;19.238;2023-03-23T16:55:25;3.35;;;1.42;;
74849;SDS011;63397;47.480;19.238;2023-03-23T16:58:27;4.97;;;1.42;;
74849;SDS011;63397;47.480;19.238;2023-03-23T17:01:30;5.13;;;1.88;;
74849;SDS011;63397;47.480;19.238;2023-03-23T17:04:32;4.10;;;1.52;;
74849;SDS011;63397;47.480;19.238;2023-03-23T17:07:35;3.70;;;1.60;;
74849;SDS011;63397;47.480;19.238;2023-03-23T17:10:38;4.50;;;1.30;;
74849;SDS011;63397;47.480;19.238;2023-03-23T17:13:41;4.82;;;1.70;;
74849;SDS011;63397;47.480;19.238;2023-03-23T17:16:43;6.00;;;1.80;;
74849;SDS011;63397;47.480;19.238;2023-03-23T17:19:45;5.18;;;2.20;;
74849;SDS011;63397;47.480;19.238;2023-03-23T17:22:48;4.73;;;2.00;;
74849;SDS011;63397;47.480;19.238;2023-03-23T17:25:50;8.85;;;2.33;;
74849;SDS011;63397;47.480;19.238;2023-03-23T17:28:53;4.63;;;2.65;;
74849;SDS011;63397;47.480;19.238;2023-03-23T17:31:55;6.00;;;2.75;;
74849;SDS011;63397;47.480;19.238;2023-03-23T17:34:57;8.48;;;2.58;;
74849;SDS011;63397;47.480;19.238;2023-03-23T17:38:00;7.40;;;3.03;;
74849;SDS011;63397;47.480;19.238;2023-03-23T17:41:03;8.02;;;3.15;;
74849;SDS011;63397;47.480;19.238;2023-03-23T17:44:08;8.63;;;2.95;;
74849;SDS011;63397;47.480;19.238;2023-03-23T17:47:11;13.27;;;3.20;;
74849;SDS011;63397;47.480;19.238;2023-03-23T17:50:13;8.65;;;3.83;;
74849;SDS011;63397;47.480;19.238;2023-03-23T17:53:16;7.60;;;3.77;;
74849;SDS011;63397;47.480;19.238;2023-03-23T17:56:19;8.77;;;4.00;;
74849;SDS011;63397;47.480;19.238;2023-03-23T17:59:22;13.27;;;5.22;;
74849;SDS011;63397;47.480;19.238;2023-03-23T18:02:25;11.52;;;4.53;;
74849;SDS011;63397;47.480;19.238;2023-03-23T18:05:28;7.78;;;3.65;;
74849;SDS011;63397;47.480;19.238;2023-03-23T18:08:30;7.90;;;3.73;;
74849;SDS011;63397;47.480;19.238;2023-03-23T18:11:32;6.25;;;2.97;;
74849;SDS011;63397;47.480;19.238;2023-03-23T18:14:35;8.10;;;3.25;;
74849;SDS011;63397;47.480;19.238;2023-03-23T18:17:40;6.35;;;2.95;;
74849;SDS011;63397;47.480;19.238;2023-03-23T18:20:43;6.15;;;3.05;;
74849;SDS011;63397;47.480;19.238;2023-03-23T18:23:45;7.63;;;3.20;;
74849;SDS011;63397;47.480;19.238;2023-03-23T18:27:00;8.55;;;3.95;;
74849;SDS011;63397;47.480;19.238;2023-03-23T18:30:03;7.38;;;3.33;;
74849;SDS011;63397;47.480;19.238;2023-03-23T18:33:06;8.73;;;3.13;;
74849;SDS011;63397;47.480;19.238;2023-03-23T18:36:08;9.18;;;3.60;;
74849;SDS011;63397;47.480;19.238;2023-03-23T18:39:11;13.13;;;3.67;;
74849;SDS011;63397;47.480;19.238;2023-03-23T18:42:13;11.93;;;4.22;;
74849;SDS011;63397;47.480;19.238;2023-03-23T18:45:16;8.27;;;3.80;;
74849;SDS011;63397;47.480;19.238;2023-03-23T18:48:18;10.35;;;4.43;;
74849;SDS011;63397;47.480;19.238;2023-03-23T18:51:21;9.57;;;4.32;;
74849;SDS011;63397;47.480;19.238;2023-03-23T18:54:24;14.83;;;5.80;;
74849;SDS011;63397;47.480;19.238;2023-03-23T18:57:26;18.13;;;7.25;;
74849;SDS011;63397;47.480;19.238;2023-03-23T19:00:29;27.27;;;8.70;;
74849;SDS011;63397;47.480;19.238;2023-03-23T19:03:32;22.08;;;7.72;;
74849;SDS011;63397;47.480;19.238;2023-03-23T19:06:34;32.63;;;10.30;;
74849;SDS011;63397;47.480;19.238;2023-03-23T19:09:37;34.67;;;10.00;;
74849;SDS011;63397;47.480;19.238;2023-03-23T19:12:40;23.05;;;9.05;;
74849;SDS011;63397;47.480;19.238;2023-03-23T19:15:42;18.83;;;6.35;;
74849;SDS011;63397;47.480;19.238;2023-03-23T19:18:45;15.13;;;5.80;;
74849;SDS011;63397;47.480;19.238;2023-03-23T19:21:48;16.08;;;5.07;;
74849;SDS011;63397;47.480;19.238;2023-03-23T19:24:50;11.30;;;5.07;;
74849;SDS011;63397;47.480;19.238;2023-03-23T19:27:53;10.52;;;4.22;;
74849;SDS011;63397;47.480;19.238;2023-03-23T19:30:58;12.05;;;4.50;;
74849;SDS011;63397;47.480;19.238;2023-03-23T19:34:01;11.98;;;4.35;;
74849;SDS011;63397;47.480;19.238;2023-03-23T19:37:04;9.25;;;4.28;;
74849;SDS011;63397;47.480;19.238;2023-03-23T19:40:12;10.87;;;4.53;;
74849;SDS011;63397;47.480;19.238;2023-03-23T19:43:34;8.82;;;4.10;;
74849;SDS011;63397;47.480;19.238;2023-03-23T19:46:38;8.55;;;3.63;;
74849;SDS011;63397;47.480;19.238;2023-03-23T19:49:41;13.73;;;4.75;;
74849;SDS011;63397;47.480;19.238;2023-03-23T19:52:43;11.38;;;4.45;;
74849;SDS011;63397;47.480;19.238;2023-03-23T19:55:46;9.83;;;4.73;;
74849;SDS011;63397;47.480;19.238;2023-03-23T19:58:49;11.82;;;4.78;;
74849;SDS011;63397;47.480;19.238;2023-03-23T20:01:52;11.57;;;4.88;;
74849;SDS011;63397;47.480;19.238;2023-03-23T20:04:56;13.27;;;5.20;;
74849;SDS011;63397;47.480;19.238;2023-03-23T20:07:58;7.68;;;4.05;;
74849;SDS011;63397;47.480;19.238;2023-03-23T20:11:04;13.10;;;5.87;;
74849;SDS011;63397;47.480;19.238;2023-03-23T20:14:07;17.38;;;5.43;;